sensor_id;sensor_type;location;lat;lon;timestamp;temperature;humidity
56044;DHT22;41912;51.022;3.664;2022-07-29T00:00:13;21.30;72.60
56044;DHT22;41912;51.022;3.664;2022-07-29T00:02:38;21.20;71.80
56044;DHT22;41912;51.022;3.664;2022-07-29T00:05:05;21.20;72.50
56044;DHT22;41912;51.022;3.664;2022-07-29T00:07:31;21.20;73.00
56044;DHT22;41912;51.022;3.664;2022-07-29T00:09:56;21.20;73.30
56044;DHT22;41912;51.022;3.664;2022-07-29T00:12:24;21.10;72.80
56044;DHT22;41912;51.022;3.664;2022-07-29T00:14:49;21.10;73.20
56044;DHT22;41912;51.022;3.664;2022-07-29T00:17:15;21.00;73.10
56044;DHT22;41912;51.022;3.664;2022-07-29T00:19:41;21.00;73.20
56044;DHT22;41912;51.022;3.664;2022-07-29T00:22:06;21.00;74.10
56044;DHT22;41912;51.022;3.664;2022-07-29T00:24:32;21.00;73.10
56044;DHT22;41912;51.022;3.664;2022-07-29T00:26:58;21.00;73.10
56044;DHT22;41912;51.022;3.664;2022-07-29T00:29:24;21.00;72.90
56044;DHT22;41912;51.022;3.664;2022-07-29T00:31:50;20.90;73.20
56044;DHT22;41912;51.022;3.664;2022-07-29T00:34:16;20.90;73.00
56044;DHT22;41912;51.022;3.664;2022-07-29T00:37:00;20.80;73.30
56044;DHT22;41912;51.022;3.664;2022-07-29T00:39:26;20.80;74.00
56044;DHT22;41912;51.022;3.664;2022-07-29T00:41:51;20.70;73.60
56044;DHT22;41912;51.022;3.664;2022-07-29T00:44:17;20.80;73.70
56044;DHT22;41912;51.022;3.664;2022-07-29T00:46:43;20.80;74.00
56044;DHT22;41912;51.022;3.664;2022-07-29T00:49:08;20.80;74.60
56044;DHT22;41912;51.022;3.664;2022-07-29T00:51:37;20.80;74.80
56044;DHT22;41912;51.022;3.664;2022-07-29T00:54:04;20.70;75.10
56044;DHT22;41912;51.022;3.664;2022-07-29T00:56:31;20.60;75.00
56044;DHT22;41912;51.022;3.664;2022-07-29T00:58:57;20.60;74.90
56044;DHT22;41912;51.022;3.664;2022-07-29T01:01:23;20.60;75.20
56044;DHT22;41912;51.022;3.664;2022-07-29T01:03:50;20.60;76.50
56044;DHT22;41912;51.022;3.664;2022-07-29T01:06:19;20.50;75.80
56044;DHT22;41912;51.022;3.664;2022-07-29T01:08:47;20.50;75.40
56044;DHT22;41912;51.022;3.664;2022-07-29T01:11:15;20.50;75.30
56044;DHT22;41912;51.022;3.664;2022-07-29T01:13:44;20.40;75.80
56044;DHT22;41912;51.022;3.664;2022-07-29T01:16:20;20.40;76.30
56044;DHT22;41912;51.022;3.664;2022-07-29T01:18:49;20.30;76.50
56044;DHT22;41912;51.022;3.664;2022-07-29T01:24:20;20.30;76.70
56044;DHT22;41912;51.022;3.664;2022-07-29T01:29:30;20.30;77.60
56044;DHT22;41912;51.022;3.664;2022-07-29T01:32:12;20.20;77.40
56044;DHT22;41912;51.022;3.664;2022-07-29T01:37:24;20.20;77.40
56044;DHT22;41912;51.022;3.664;2022-07-29T01:39:54;20.20;77.70
56044;DHT22;41912;51.022;3.664;2022-07-29T01:42:30;20.10;77.10
56044;DHT22;41912;51.022;3.664;2022-07-29T01:45:02;20.10;78.30
56044;DHT22;41912;51.022;3.664;2022-07-29T01:47:40;20.10;79.20
56044;DHT22;41912;51.022;3.664;2022-07-29T01:50:11;20.00;79.10
56044;DHT22;41912;51.022;3.664;2022-07-29T01:52:52;19.90;79.80
56044;DHT22;41912;51.022;3.664;2022-07-29T01:55:20;19.80;80.50
56044;DHT22;41912;51.022;3.664;2022-07-29T01:57:48;19.70;80.50
56044;DHT22;41912;51.022;3.664;2022-07-29T02:00:15;19.70;80.70
56044;DHT22;41912;51.022;3.664;2022-07-29T02:02:44;19.60;80.90
56044;DHT22;41912;51.022;3.664;2022-07-29T02:05:13;19.60;81.20
56044;DHT22;41912;51.022;3.664;2022-07-29T02:07:43;19.60;81.80
56044;DHT22;41912;51.022;3.664;2022-07-29T02:10:10;19.50;81.70
56044;DHT22;41912;51.022;3.664;2022-07-29T02:12:38;19.50;81.20
56044;DHT22;41912;51.022;3.664;2022-07-29T02:15:06;19.40;81.00
56044;DHT22;41912;51.022;3.664;2022-07-29T02:17:48;19.40;81.60
56044;DHT22;41912;51.022;3.664;2022-07-29T02:20:16;19.40;81.10
56044;DHT22;41912;51.022;3.664;2022-07-29T02:22:44;19.30;81.50
56044;DHT22;41912;51.022;3.664;2022-07-29T02:25:11;19.20;82.10
56044;DHT22;41912;51.022;3.664;2022-07-29T02:27:38;19.20;82.50
56044;DHT22;41912;51.022;3.664;2022-07-29T02:30:06;19.10;82.60
56044;DHT22;41912;51.022;3.664;2022-07-29T02:32:34;19.10;82.80
56044;DHT22;41912;51.022;3.664;2022-07-29T02:35:01;19.10;82.90
56044;DHT22;41912;51.022;3.664;2022-07-29T02:37:28;19.00;83.30
56044;DHT22;41912;51.022;3.664;2022-07-29T02:39:55;19.00;84.00
56044;DHT22;41912;51.022;3.664;2022-07-29T02:42:24;18.90;84.20
56044;DHT22;41912;51.022;3.664;2022-07-29T02:44:52;18.90;84.30
56044;DHT22;41912;51.022;3.664;2022-07-29T02:49:53;18.80;84.80
56044;DHT22;41912;51.022;3.664;2022-07-29T02:55:14;18.80;84.70
56044;DHT22;41912;51.022;3.664;2022-07-29T02:57:47;18.80;85.60
56044;DHT22;41912;51.022;3.664;2022-07-29T03:00:14;18.70;85.40
56044;DHT22;41912;51.022;3.664;2022-07-29T03:02:44;18.70;85.20
56044;DHT22;41912;51.022;3.664;2022-07-29T03:05:17;18.60;85.50
56044;DHT22;41912;51.022;3.664;2022-07-29T03:07:48;18.60;85.70
56044;DHT22;41912;51.022;3.664;2022-07-29T03:10:14;18.50;85.50
56044;DHT22;41912;51.022;3.664;2022-07-29T03:12:41;18.40;85.70
56044;DHT22;41912;51.022;3.664;2022-07-29T03:15:08;18.40;85.70
56044;DHT22;41912;51.022;3.664;2022-07-29T03:17:35;18.40;86.00
56044;DHT22;41912;51.022;3.664;2022-07-29T03:20:01;18.40;86.20
56044;DHT22;41912;51.022;3.664;2022-07-29T03:22:28;18.30;86.00
56044;DHT22;41912;51.022;3.664;2022-07-29T03:24:54;18.30;86.40
56044;DHT22;41912;51.022;3.664;2022-07-29T03:27:19;18.20;87.00
56044;DHT22;41912;51.022;3.664;2022-07-29T03:29:45;18.10;87.80
56044;DHT22;41912;51.022;3.664;2022-07-29T03:32:10;18.10;87.40
56044;DHT22;41912;51.022;3.664;2022-07-29T03:34:36;18.10;87.40
56044;DHT22;41912;51.022;3.664;2022-07-29T03:37:03;18.00;87.50
56044;DHT22;41912;51.022;3.664;2022-07-29T03:39:31;18.00;87.70
56044;DHT22;41912;51.022;3.664;2022-07-29T03:41:59;18.00;88.00
56044;DHT22;41912;51.022;3.664;2022-07-29T03:44:27;18.00;88.50
56044;DHT22;41912;51.022;3.664;2022-07-29T03:46:54;17.90;88.70
56044;DHT22;41912;51.022;3.664;2022-07-29T03:49:21;17.90;88.80
56044;DHT22;41912;51.022;3.664;2022-07-29T03:51:49;17.80;89.00
56044;DHT22;41912;51.022;3.664;2022-07-29T03:54:15;17.80;89.10
56044;DHT22;41912;51.022;3.664;2022-07-29T03:56:43;17.80;89.40
56044;DHT22;41912;51.022;3.664;2022-07-29T03:59:13;17.70;89.80
56044;DHT22;41912;51.022;3.664;2022-07-29T04:01:39;17.70;89.90
56044;DHT22;41912;51.022;3.664;2022-07-29T04:04:05;17.70;90.10
56044;DHT22;41912;51.022;3.664;2022-07-29T04:06:40;17.60;89.90
56044;DHT22;41912;51.022;3.664;2022-07-29T04:09:07;17.60;89.80
56044;DHT22;41912;51.022;3.664;2022-07-29T04:11:33;17.60;90.00
56044;DHT22;41912;51.022;3.664;2022-07-29T04:13:58;17.60;90.10
56044;DHT22;41912;51.022;3.664;2022-07-29T04:16:24;17.50;90.00
56044;DHT22;41912;51.022;3.664;2022-07-29T04:18:50;17.50;90.20
56044;DHT22;41912;51.022;3.664;2022-07-29T04:21:15;17.50;90.20
56044;DHT22;41912;51.022;3.664;2022-07-29T04:23:41;17.40;90.30
56044;DHT22;41912;51.022;3.664;2022-07-29T04:26:06;17.30;90.40
56044;DHT22;41912;51.022;3.664;2022-07-29T04:28:35;17.30;90.50
56044;DHT22;41912;51.022;3.664;2022-07-29T04:31:00;17.30;90.60
56044;DHT22;41912;51.022;3.664;2022-07-29T04:33:27;17.30;90.80
56044;DHT22;41912;51.022;3.664;2022-07-29T04:35:52;17.30;90.80
56044;DHT22;41912;51.022;3.664;2022-07-29T04:38:18;17.30;90.90
56044;DHT22;41912;51.022;3.664;2022-07-29T04:40:43;17.30;90.90
56044;DHT22;41912;51.022;3.664;2022-07-29T04:43:09;17.30;91.10
56044;DHT22;41912;51.022;3.664;2022-07-29T04:45:35;17.30;91.20
56044;DHT22;41912;51.022;3.664;2022-07-29T04:48:00;17.20;91.20
56044;DHT22;41912;51.022;3.664;2022-07-29T04:50:26;17.20;91.30
56044;DHT22;41912;51.022;3.664;2022-07-29T04:52:51;17.20;91.30
56044;DHT22;41912;51.022;3.664;2022-07-29T04:55:17;17.30;91.40
56044;DHT22;41912;51.022;3.664;2022-07-29T04:57:43;17.30;91.50
56044;DHT22;41912;51.022;3.664;2022-07-29T05:00:10;17.20;91.70
56044;DHT22;41912;51.022;3.664;2022-07-29T05:02:36;17.20;91.80
56044;DHT22;41912;51.022;3.664;2022-07-29T05:05:02;17.20;91.90
56044;DHT22;41912;51.022;3.664;2022-07-29T05:07:27;17.20;92.00
56044;DHT22;41912;51.022;3.664;2022-07-29T05:09:53;17.30;92.00
56044;DHT22;41912;51.022;3.664;2022-07-29T05:12:19;17.30;92.00
56044;DHT22;41912;51.022;3.664;2022-07-29T05:14:44;17.30;92.00
56044;DHT22;41912;51.022;3.664;2022-07-29T05:17:10;17.20;92.00
56044;DHT22;41912;51.022;3.664;2022-07-29T05:19:35;17.30;92.10
56044;DHT22;41912;51.022;3.664;2022-07-29T05:22:01;17.30;92.20
56044;DHT22;41912;51.022;3.664;2022-07-29T05:24:26;17.40;92.30
56044;DHT22;41912;51.022;3.664;2022-07-29T05:26:52;17.40;92.30
56044;DHT22;41912;51.022;3.664;2022-07-29T05:29:18;17.40;92.30
56044;DHT22;41912;51.022;3.664;2022-07-29T05:31:43;17.40;92.30
56044;DHT22;41912;51.022;3.664;2022-07-29T05:34:09;17.40;92.40
56044;DHT22;41912;51.022;3.664;2022-07-29T05:36:34;17.50;92.50
56044;DHT22;41912;51.022;3.664;2022-07-29T05:39:00;17.50;92.50
56044;DHT22;41912;51.022;3.664;2022-07-29T05:41:26;17.60;92.60
56044;DHT22;41912;51.022;3.664;2022-07-29T05:43:51;17.60;92.50
56044;DHT22;41912;51.022;3.664;2022-07-29T05:46:17;17.60;92.50
56044;DHT22;41912;51.022;3.664;2022-07-29T05:48:42;17.60;92.60
56044;DHT22;41912;51.022;3.664;2022-07-29T05:51:08;17.70;92.60
56044;DHT22;41912;51.022;3.664;2022-07-29T05:53:34;17.70;92.70
56044;DHT22;41912;51.022;3.664;2022-07-29T05:56:03;17.70;92.70
56044;DHT22;41912;51.022;3.664;2022-07-29T05:58:30;17.80;92.60
56044;DHT22;41912;51.022;3.664;2022-07-29T06:00:55;17.80;92.50
56044;DHT22;41912;51.022;3.664;2022-07-29T06:03:25;17.90;92.60
56044;DHT22;41912;51.022;3.664;2022-07-29T06:05:50;18.00;92.60
56044;DHT22;41912;51.022;3.664;2022-07-29T06:08:16;18.10;92.70
56044;DHT22;41912;51.022;3.664;2022-07-29T06:10:42;18.10;92.40
56044;DHT22;41912;51.022;3.664;2022-07-29T06:13:08;18.20;92.30
56044;DHT22;41912;51.022;3.664;2022-07-29T06:15:34;18.30;92.30
56044;DHT22;41912;51.022;3.664;2022-07-29T06:18:00;18.30;92.30
56044;DHT22;41912;51.022;3.664;2022-07-29T06:20:25;18.40;92.30
56044;DHT22;41912;51.022;3.664;2022-07-29T06:22:52;18.40;92.20
56044;DHT22;41912;51.022;3.664;2022-07-29T06:25:17;18.40;92.20
56044;DHT22;41912;51.022;3.664;2022-07-29T06:27:43;18.50;92.10
56044;DHT22;41912;51.022;3.664;2022-07-29T06:30:09;18.60;92.00
56044;DHT22;41912;51.022;3.664;2022-07-29T06:32:35;18.60;91.80
56044;DHT22;41912;51.022;3.664;2022-07-29T06:35:01;18.70;91.70
56044;DHT22;41912;51.022;3.664;2022-07-29T06:37:27;18.70;91.60
56044;DHT22;41912;51.022;3.664;2022-07-29T06:39:52;18.80;91.50
56044;DHT22;41912;51.022;3.664;2022-07-29T06:42:42;18.80;91.30
56044;DHT22;41912;51.022;3.664;2022-07-29T06:45:08;18.90;91.50
56044;DHT22;41912;51.022;3.664;2022-07-29T06:47:34;18.90;91.20
56044;DHT22;41912;51.022;3.664;2022-07-29T06:49:59;19.00;91.00
56044;DHT22;41912;51.022;3.664;2022-07-29T06:52:25;19.00;91.10
56044;DHT22;41912;51.022;3.664;2022-07-29T06:54:51;19.10;91.10
56044;DHT22;41912;51.022;3.664;2022-07-29T06:57:16;19.20;91.00
56044;DHT22;41912;51.022;3.664;2022-07-29T06:59:42;19.20;91.00
56044;DHT22;41912;51.022;3.664;2022-07-29T07:02:07;19.30;90.90
56044;DHT22;41912;51.022;3.664;2022-07-29T07:04:33;19.30;90.80
56044;DHT22;41912;51.022;3.664;2022-07-29T07:06:59;19.40;90.60
56044;DHT22;41912;51.022;3.664;2022-07-29T07:09:25;19.40;90.80
56044;DHT22;41912;51.022;3.664;2022-07-29T07:11:50;19.50;90.90
56044;DHT22;41912;51.022;3.664;2022-07-29T07:14:16;19.60;90.70
56044;DHT22;41912;51.022;3.664;2022-07-29T07:16:41;19.60;90.40
56044;DHT22;41912;51.022;3.664;2022-07-29T07:19:07;19.70;90.10
56044;DHT22;41912;51.022;3.664;2022-07-29T07:21:33;19.70;90.00
56044;DHT22;41912;51.022;3.664;2022-07-29T07:23:59;19.80;90.20
56044;DHT22;41912;51.022;3.664;2022-07-29T07:26:26;19.90;90.00
56044;DHT22;41912;51.022;3.664;2022-07-29T07:28:52;19.90;89.40
56044;DHT22;41912;51.022;3.664;2022-07-29T07:31:18;20.00;89.10
56044;DHT22;41912;51.022;3.664;2022-07-29T07:33:44;20.00;88.90
56044;DHT22;41912;51.022;3.664;2022-07-29T07:36:09;20.10;89.40
56044;DHT22;41912;51.022;3.664;2022-07-29T07:38:35;20.10;89.30
56044;DHT22;41912;51.022;3.664;2022-07-29T07:41:01;20.20;88.80
56044;DHT22;41912;51.022;3.664;2022-07-29T07:43:26;20.30;89.10
56044;DHT22;41912;51.022;3.664;2022-07-29T07:45:52;20.30;89.30
56044;DHT22;41912;51.022;3.664;2022-07-29T07:48:18;20.40;89.10
56044;DHT22;41912;51.022;3.664;2022-07-29T07:50:44;20.50;88.20
56044;DHT22;41912;51.022;3.664;2022-07-29T07:53:09;20.50;88.00
56044;DHT22;41912;51.022;3.664;2022-07-29T07:55:42;20.60;87.40
56044;DHT22;41912;51.022;3.664;2022-07-29T07:58:09;20.60;87.70
56044;DHT22;41912;51.022;3.664;2022-07-29T08:00:35;20.70;87.70
56044;DHT22;41912;51.022;3.664;2022-07-29T08:03:01;20.70;86.80
56044;DHT22;41912;51.022;3.664;2022-07-29T08:05:27;20.80;87.00
56044;DHT22;41912;51.022;3.664;2022-07-29T08:07:52;20.80;87.40
56044;DHT22;41912;51.022;3.664;2022-07-29T08:10:19;20.90;87.40
56044;DHT22;41912;51.022;3.664;2022-07-29T08:13:05;21.00;87.40
56044;DHT22;41912;51.022;3.664;2022-07-29T08:15:31;21.00;86.80
56044;DHT22;41912;51.022;3.664;2022-07-29T08:17:57;21.10;86.50
56044;DHT22;41912;51.022;3.664;2022-07-29T08:20:23;21.20;86.30
56044;DHT22;41912;51.022;3.664;2022-07-29T08:22:48;21.20;87.20
56044;DHT22;41912;51.022;3.664;2022-07-29T08:25:14;21.30;86.60
56044;DHT22;41912;51.022;3.664;2022-07-29T08:27:39;21.40;85.60
56044;DHT22;41912;51.022;3.664;2022-07-29T08:30:05;21.40;85.20
56044;DHT22;41912;51.022;3.664;2022-07-29T08:32:31;21.50;85.30
56044;DHT22;41912;51.022;3.664;2022-07-29T08:34:57;21.50;82.50
56044;DHT22;41912;51.022;3.664;2022-07-29T08:37:23;21.60;84.10
56044;DHT22;41912;51.022;3.664;2022-07-29T08:39:48;21.60;82.20
56044;DHT22;41912;51.022;3.664;2022-07-29T08:42:15;21.70;81.70
56044;DHT22;41912;51.022;3.664;2022-07-29T08:44:42;21.80;82.40
56044;DHT22;41912;51.022;3.664;2022-07-29T08:47:07;21.80;81.30
56044;DHT22;41912;51.022;3.664;2022-07-29T08:49:34;21.90;80.40
56044;DHT22;41912;51.022;3.664;2022-07-29T08:52:01;22.00;82.00
56044;DHT22;41912;51.022;3.664;2022-07-29T08:54:28;22.10;80.60
56044;DHT22;41912;51.022;3.664;2022-07-29T08:57:02;22.10;81.60
56044;DHT22;41912;51.022;3.664;2022-07-29T08:59:30;22.20;80.10
56044;DHT22;41912;51.022;3.664;2022-07-29T09:01:58;22.30;79.70
56044;DHT22;41912;51.022;3.664;2022-07-29T09:04:30;22.30;81.70
56044;DHT22;41912;51.022;3.664;2022-07-29T09:06:59;22.40;83.40
56044;DHT22;41912;51.022;3.664;2022-07-29T09:09:29;22.60;81.60
56044;DHT22;41912;51.022;3.664;2022-07-29T09:11:54;22.60;81.20
56044;DHT22;41912;51.022;3.664;2022-07-29T09:14:20;22.70;79.20
56044;DHT22;41912;51.022;3.664;2022-07-29T09:16:56;22.70;77.90
56044;DHT22;41912;51.022;3.664;2022-07-29T09:19:30;22.80;80.60
56044;DHT22;41912;51.022;3.664;2022-07-29T09:21:57;22.90;79.10
56044;DHT22;41912;51.022;3.664;2022-07-29T09:24:24;22.90;78.00
56044;DHT22;41912;51.022;3.664;2022-07-29T09:26:50;23.00;75.60
56044;DHT22;41912;51.022;3.664;2022-07-29T09:29:18;23.10;75.00
56044;DHT22;41912;51.022;3.664;2022-07-29T09:31:47;23.10;77.30
56044;DHT22;41912;51.022;3.664;2022-07-29T09:34:15;23.20;76.60
56044;DHT22;41912;51.022;3.664;2022-07-29T09:36:43;23.30;75.50
56044;DHT22;41912;51.022;3.664;2022-07-29T09:39:09;23.30;77.30
56044;DHT22;41912;51.022;3.664;2022-07-29T09:41:52;23.40;76.30
56044;DHT22;41912;51.022;3.664;2022-07-29T09:44:21;23.50;75.20
56044;DHT22;41912;51.022;3.664;2022-07-29T09:46:59;23.60;76.20
56044;DHT22;41912;51.022;3.664;2022-07-29T09:49:31;23.70;73.70
56044;DHT22;41912;51.022;3.664;2022-07-29T09:52:07;23.80;73.50
56044;DHT22;41912;51.022;3.664;2022-07-29T09:54:34;24.00;75.00
56044;DHT22;41912;51.022;3.664;2022-07-29T09:57:05;24.00;73.50
56044;DHT22;41912;51.022;3.664;2022-07-29T09:59:32;24.10;70.60
56044;DHT22;41912;51.022;3.664;2022-07-29T10:01:58;24.10;70.30
56044;DHT22;41912;51.022;3.664;2022-07-29T10:04:37;24.10;68.60
56044;DHT22;41912;51.022;3.664;2022-07-29T10:07:03;24.20;68.70
56044;DHT22;41912;51.022;3.664;2022-07-29T10:09:31;24.20;70.80
56044;DHT22;41912;51.022;3.664;2022-07-29T10:12:13;24.30;68.70
56044;DHT22;41912;51.022;3.664;2022-07-29T10:14:40;24.40;68.70
56044;DHT22;41912;51.022;3.664;2022-07-29T10:17:08;24.50;69.70
56044;DHT22;41912;51.022;3.664;2022-07-29T10:19:36;24.60;68.90
56044;DHT22;41912;51.022;3.664;2022-07-29T10:22:06;24.70;68.40
56044;DHT22;41912;51.022;3.664;2022-07-29T10:24:32;24.80;65.80
56044;DHT22;41912;51.022;3.664;2022-07-29T10:27:00;24.80;66.60
56044;DHT22;41912;51.022;3.664;2022-07-29T10:29:26;24.80;68.90
56044;DHT22;41912;51.022;3.664;2022-07-29T10:37:56;25.10;67.20
56044;DHT22;41912;51.022;3.664;2022-07-29T10:43:26;25.30;66.10
56044;DHT22;41912;51.022;3.664;2022-07-29T10:45:56;25.40;64.50
56044;DHT22;41912;51.022;3.664;2022-07-29T10:48:23;25.50;63.70
56044;DHT22;41912;51.022;3.664;2022-07-29T10:50:57;25.50;62.60
56044;DHT22;41912;51.022;3.664;2022-07-29T10:56:24;25.60;64.80
56044;DHT22;41912;51.022;3.664;2022-07-29T11:01:53;25.70;65.40
56044;DHT22;41912;51.022;3.664;2022-07-29T11:07:11;25.60;61.20
56044;DHT22;41912;51.022;3.664;2022-07-29T11:09:38;25.50;62.80
56044;DHT22;41912;51.022;3.664;2022-07-29T11:12:50;25.50;62.00
56044;DHT22;41912;51.022;3.664;2022-07-29T11:15:00;25.50;62.50
56044;DHT22;41912;51.022;3.664;2022-07-29T11:17:28;25.40;60.40
56044;DHT22;41912;51.022;3.664;2022-07-29T11:22:57;25.50;60.00
56044;DHT22;41912;51.022;3.664;2022-07-29T11:25:23;25.50;61.30
56044;DHT22;41912;51.022;3.664;2022-07-29T11:27:49;25.50;60.70
56044;DHT22;41912;51.022;3.664;2022-07-29T11:30:16;25.60;62.00
56044;DHT22;41912;51.022;3.664;2022-07-29T11:32:43;25.80;62.80
56044;DHT22;41912;51.022;3.664;2022-07-29T11:35:19;25.90;59.30
56044;DHT22;41912;51.022;3.664;2022-07-29T11:43:48;26.20;56.20
56044;DHT22;41912;51.022;3.664;2022-07-29T11:46:14;26.20;58.90
56044;DHT22;41912;51.022;3.664;2022-07-29T11:48:43;26.30;57.30
56044;DHT22;41912;51.022;3.664;2022-07-29T11:51:11;26.40;58.10
56044;DHT22;41912;51.022;3.664;2022-07-29T11:53:38;26.40;58.30
56044;DHT22;41912;51.022;3.664;2022-07-29T11:56:08;26.30;57.30
56044;DHT22;41912;51.022;3.664;2022-07-29T11:58:34;26.30;58.10
56044;DHT22;41912;51.022;3.664;2022-07-29T12:01:00;26.30;58.20
56044;DHT22;41912;51.022;3.664;2022-07-29T12:03:27;26.40;58.00
56044;DHT22;41912;51.022;3.664;2022-07-29T12:05:52;26.50;55.10
56044;DHT22;41912;51.022;3.664;2022-07-29T12:08:21;26.60;55.50
56044;DHT22;41912;51.022;3.664;2022-07-29T12:10:49;26.80;55.50
56044;DHT22;41912;51.022;3.664;2022-07-29T12:13:16;26.90;55.40
56044;DHT22;41912;51.022;3.664;2022-07-29T12:15:55;26.90;53.40
56044;DHT22;41912;51.022;3.664;2022-07-29T12:18:22;27.00;53.00
56044;DHT22;41912;51.022;3.664;2022-07-29T12:20:48;27.00;56.40
56044;DHT22;41912;51.022;3.664;2022-07-29T12:23:15;27.00;55.10
56044;DHT22;41912;51.022;3.664;2022-07-29T12:25:42;27.00;54.30
56044;DHT22;41912;51.022;3.664;2022-07-29T12:28:11;26.90;54.60
56044;DHT22;41912;51.022;3.664;2022-07-29T12:30:38;26.80;56.60
56044;DHT22;41912;51.022;3.664;2022-07-29T12:33:16;26.90;57.00
56044;DHT22;41912;51.022;3.664;2022-07-29T12:35:45;27.00;56.00
56044;DHT22;41912;51.022;3.664;2022-07-29T12:38:12;27.20;56.30
56044;DHT22;41912;51.022;3.664;2022-07-29T12:40:38;27.30;55.00
56044;DHT22;41912;51.022;3.664;2022-07-29T12:43:16;27.40;54.80
56044;DHT22;41912;51.022;3.664;2022-07-29T12:45:45;27.30;53.70
56044;DHT22;41912;51.022;3.664;2022-07-29T12:48:11;27.40;55.20
56044;DHT22;41912;51.022;3.664;2022-07-29T12:51:02;27.50;53.10
56044;DHT22;41912;51.022;3.664;2022-07-29T12:53:28;27.60;53.40
56044;DHT22;41912;51.022;3.664;2022-07-29T12:55:56;27.60;53.80
56044;DHT22;41912;51.022;3.664;2022-07-29T12:58:38;27.70;54.60
56044;DHT22;41912;51.022;3.664;2022-07-29T13:03:48;27.80;54.80
56044;DHT22;41912;51.022;3.664;2022-07-29T13:11:51;27.90;53.30
56044;DHT22;41912;51.022;3.664;2022-07-29T13:14:34;27.80;53.40
56044;DHT22;41912;51.022;3.664;2022-07-29T13:17:20;27.90;53.40
56044;DHT22;41912;51.022;3.664;2022-07-29T13:20:06;27.90;53.50
56044;DHT22;41912;51.022;3.664;2022-07-29T13:22:34;27.80;52.80
56044;DHT22;41912;51.022;3.664;2022-07-29T13:25:01;27.70;54.90
56044;DHT22;41912;51.022;3.664;2022-07-29T13:27:33;27.70;55.90
56044;DHT22;41912;51.022;3.664;2022-07-29T13:30:00;27.70;56.60
56044;DHT22;41912;51.022;3.664;2022-07-29T13:32:28;27.80;54.80
56044;DHT22;41912;51.022;3.664;2022-07-29T13:34:59;27.80;55.40
56044;DHT22;41912;51.022;3.664;2022-07-29T13:37:28;27.80;54.30
56044;DHT22;41912;51.022;3.664;2022-07-29T13:39:55;27.70;54.10
56044;DHT22;41912;51.022;3.664;2022-07-29T13:42:21;27.60;54.70
56044;DHT22;41912;51.022;3.664;2022-07-29T13:44:47;27.60;55.30
56044;DHT22;41912;51.022;3.664;2022-07-29T13:47:14;27.70;54.70
56044;DHT22;41912;51.022;3.664;2022-07-29T13:49:41;27.90;55.40
56044;DHT22;41912;51.022;3.664;2022-07-29T13:52:07;28.10;53.10
56044;DHT22;41912;51.022;3.664;2022-07-29T13:54:32;28.10;52.70
56044;DHT22;41912;51.022;3.664;2022-07-29T13:56:58;28.20;53.00
56044;DHT22;41912;51.022;3.664;2022-07-29T13:59:23;28.20;52.10
56044;DHT22;41912;51.022;3.664;2022-07-29T14:01:49;28.10;53.00
56044;DHT22;41912;51.022;3.664;2022-07-29T14:04:15;28.10;52.40
56044;DHT22;41912;51.022;3.664;2022-07-29T14:06:40;28.20;52.30
56044;DHT22;41912;51.022;3.664;2022-07-29T14:09:06;28.20;51.90
56044;DHT22;41912;51.022;3.664;2022-07-29T14:11:34;28.20;54.10
56044;DHT22;41912;51.022;3.664;2022-07-29T14:13:59;28.20;54.60
56044;DHT22;41912;51.022;3.664;2022-07-29T14:16:25;28.10;54.00
56044;DHT22;41912;51.022;3.664;2022-07-29T14:18:51;28.00;54.20
56044;DHT22;41912;51.022;3.664;2022-07-29T14:21:16;28.00;54.20
56044;DHT22;41912;51.022;3.664;2022-07-29T14:23:42;28.10;53.00
56044;DHT22;41912;51.022;3.664;2022-07-29T14:26:07;28.30;54.60
56044;DHT22;41912;51.022;3.664;2022-07-29T14:28:33;28.50;54.50
56044;DHT22;41912;51.022;3.664;2022-07-29T14:30:59;28.60;54.70
56044;DHT22;41912;51.022;3.664;2022-07-29T14:33:24;28.70;51.90
56044;DHT22;41912;51.022;3.664;2022-07-29T14:35:50;28.80;52.60
56044;DHT22;41912;51.022;3.664;2022-07-29T14:38:15;28.70;53.30
56044;DHT22;41912;51.022;3.664;2022-07-29T14:40:41;28.70;53.60
56044;DHT22;41912;51.022;3.664;2022-07-29T14:43:07;28.60;52.20
56044;DHT22;41912;51.022;3.664;2022-07-29T14:45:32;28.50;53.70
56044;DHT22;41912;51.022;3.664;2022-07-29T14:47:58;28.30;52.80
56044;DHT22;41912;51.022;3.664;2022-07-29T14:50:25;28.20;52.80
56044;DHT22;41912;51.022;3.664;2022-07-29T14:52:52;28.20;54.40
56044;DHT22;41912;51.022;3.664;2022-07-29T14:55:17;28.20;54.00
56044;DHT22;41912;51.022;3.664;2022-07-29T14:57:43;28.20;54.00
56044;DHT22;41912;51.022;3.664;2022-07-29T15:00:09;28.20;52.90
56044;DHT22;41912;51.022;3.664;2022-07-29T15:02:35;28.40;53.20
56044;DHT22;41912;51.022;3.664;2022-07-29T15:05:01;28.50;53.60
56044;DHT22;41912;51.022;3.664;2022-07-29T15:07:27;28.70;53.30
56044;DHT22;41912;51.022;3.664;2022-07-29T15:09:53;28.60;53.00
56044;DHT22;41912;51.022;3.664;2022-07-29T15:12:18;28.60;52.20
56044;DHT22;41912;51.022;3.664;2022-07-29T15:14:44;28.50;52.40
56044;DHT22;41912;51.022;3.664;2022-07-29T15:17:10;28.30;51.90
56044;DHT22;41912;51.022;3.664;2022-07-29T15:19:35;28.30;53.60
56044;DHT22;41912;51.022;3.664;2022-07-29T15:22:02;28.20;53.70
56044;DHT22;41912;51.022;3.664;2022-07-29T15:24:30;28.20;52.70
56044;DHT22;41912;51.022;3.664;2022-07-29T15:26:55;28.10;53.70
56044;DHT22;41912;51.022;3.664;2022-07-29T15:29:21;28.10;53.70
56044;DHT22;41912;51.022;3.664;2022-07-29T15:31:47;28.10;54.40
56044;DHT22;41912;51.022;3.664;2022-07-29T15:34:12;28.10;54.60
56044;DHT22;41912;51.022;3.664;2022-07-29T15:36:38;28.10;53.60
56044;DHT22;41912;51.022;3.664;2022-07-29T15:39:04;28.10;55.10
56044;DHT22;41912;51.022;3.664;2022-07-29T15:41:29;28.10;54.80
56044;DHT22;41912;51.022;3.664;2022-07-29T15:43:55;28.10;55.60
56044;DHT22;41912;51.022;3.664;2022-07-29T15:46:21;28.10;55.70
56044;DHT22;41912;51.022;3.664;2022-07-29T15:49:06;28.10;54.10
56044;DHT22;41912;51.022;3.664;2022-07-29T15:51:32;28.00;54.30
56044;DHT22;41912;51.022;3.664;2022-07-29T15:54:01;27.90;54.40
56044;DHT22;41912;51.022;3.664;2022-07-29T15:56:27;27.90;54.80
56044;DHT22;41912;51.022;3.664;2022-07-29T15:58:52;27.80;54.60
56044;DHT22;41912;51.022;3.664;2022-07-29T16:01:18;27.70;54.70
56044;DHT22;41912;51.022;3.664;2022-07-29T16:03:43;27.70;54.90
56044;DHT22;41912;51.022;3.664;2022-07-29T16:06:09;27.70;54.40
56044;DHT22;41912;51.022;3.664;2022-07-29T16:08:35;27.70;55.10
56044;DHT22;41912;51.022;3.664;2022-07-29T16:11:01;27.70;56.00
56044;DHT22;41912;51.022;3.664;2022-07-29T16:13:26;27.70;55.40
56044;DHT22;41912;51.022;3.664;2022-07-29T16:15:52;27.70;56.20
56044;DHT22;41912;51.022;3.664;2022-07-29T16:18:17;27.60;54.10
56044;DHT22;41912;51.022;3.664;2022-07-29T16:20:43;27.50;54.00